Time;durP1;ratioP1;P1;durP2;ratioP2;P2;SDS_P1;SDS_P2;PMS_P1;PMS_P2;Temp;Humidity;BMP_temperature;BMP_pressure;BME280_temperature;BME280_humidity;BME280_pressure;Samples;Min_cycle;Max_cycle;Signal;HPM_P1;HPM_P2
2022/06/25 00:01:28;;;;;;;2.08;0.70;;;;;;;;;;5091936;28;20740;-69
2022/06/25 00:03:55;;;;;;;1.95;1.00;;;;;;;;;;5092075;28;20363;-69
2022/06/25 00:06:22;;;;;;;4.20;1.15;;;;;;;;;;5091754;28;20048;-69
2022/06/25 00:08:53;;;;;;;5.22;1.67;;;;;;;;;;5091851;28;20052;-69
2022/06/25 00:14:09;;;;;;;3.70;0.70;;;;;;;;;;5092137;28;20044;-69
2022/06/25 00:16:36;;;;;;;3.53;0.68;;;;;;;;;;5091623;28;20079;-69
2022/06/25 00:19:03;;;;;;;4.78;1.00;;;;;;;;;;5091694;28;20549;-68
2022/06/25 00:21:31;;;;;;;4.75;0.98;;;;;;;;;;5090672;28;20060;-68
2022/06/25 00:23:57;;;;;;;3.95;1.05;;;;;;;;;;5091924;28;20043;-68
2022/06/25 00:26:24;;;;;;;2.45;0.73;;;;;;;;;;5092133;28;20048;-68
2022/06/25 00:28:50;;;;;;;3.60;1.08;;;;;;;;;;5091817;28;20043;-68
2022/06/25 00:31:17;;;;;;;3.65;0.90;;;;;;;;;;5091878;28;20048;-68
2022/06/25 00:33:43;;;;;;;4.35;1.02;;;;;;;;;;5091774;28;20054;-68
2022/06/25 00:36:10;;;;;;;3.65;0.88;;;;;;;;;;5091552;28;20056;-68
2022/06/25 00:38:36;;;;;;;2.58;1.05;;;;;;;;;;5091399;28;20087;-69
2022/06/25 00:41:03;;;;;;;6.10;1.25;;;;;;;;;;5091387;28;20084;-69
2022/06/25 00:43:31;;;;;;;2.55;1.02;;;;;;;;;;5091684;28;20048;-69
2022/06/25 00:45:58;;;;;;;3.78;1.13;;;;;;;;;;5091617;28;20407;-68
2022/06/25 00:48:24;;;;;;;4.25;1.15;;;;;;;;;;5091773;28;20044;-68
2022/06/25 00:50:53;;;;;;;4.07;1.45;;;;;;;;;;5091318;28;20480;-68
2022/06/25 00:53:20;;;;;;;4.15;1.27;;;;;;;;;;5091352;28;20508;-68
2022/06/25 00:55:48;;;;;;;4.40;1.00;;;;;;;;;;5091879;28;20052;-68
2022/06/25 00:58:14;;;;;;;;;;;;;;;;;;5082949;28;20458;-69
2022/06/25 01:00:41;;;;;;;3.92;1.08;;;;;;;;;;5082826;28;19920;-69
2022/06/25 01:03:07;;;;;;;4.00;1.20;;;;;;;;;;5091305;28;20541;-68
2022/06/25 01:05:34;;;;;;;6.45;1.30;;;;;;;;;;5091066;28;20079;-68
2022/06/25 01:08:00;;;;;;;3.17;0.90;;;;;;;;;;5090108;28;20048;-68
2022/06/25 01:10:27;;;;;;;1.98;1.00;;;;;;;;;;5091488;28;20052;-68
2022/06/25 01:12:53;;;;;;;4.95;0.90;;;;;;;;;;5091238;28;20044;-68
2022/06/25 01:15:20;;;;;;;4.13;0.80;;;;;;;;;;5091481;28;20105;-68
2022/06/25 01:17:47;;;;;;;2.42;0.80;;;;;;;;;;5091218;28;20108;-68
2022/06/25 01:20:14;;;;;;;4.47;1.27;;;;;;;;;;5091097;28;20522;-68
2022/06/25 01:22:41;;;;;;;1.92;0.90;;;;;;;;;;5091437;28;20093;-68
2022/06/25 01:25:08;;;;;;;3.83;0.85;;;;;;;;;;5089980;28;20067;-68
2022/06/25 01:27:35;;;;;;;3.90;0.73;;;;;;;;;;5091091;28;20044;-68
2022/06/25 01:30:02;;;;;;;5.60;0.93;;;;;;;;;;5091593;28;20048;-68
2022/06/25 01:32:29;;;;;;;3.40;1.23;;;;;;;;;;5091780;28;20101;-68
2022/06/25 01:34:55;;;;;;;4.55;0.95;;;;;;;;;;5094663;28;20102;-68
2022/06/25 01:37:22;;;;;;;3.75;0.85;;;;;;;;;;5094904;28;20098;-68
2022/06/25 01:39:52;;;;;;;2.88;0.80;;;;;;;;;;5094359;28;20462;-68
2022/06/25 01:43:01;;;;;;;3.00;0.55;;;;;;;;;;5094458;28;20090;-68
2022/06/25 01:45:09;;;;;;;4.45;1.05;;;;;;;;;;5086292;28;20039;-68
2022/06/25 01:47:35;;;;;;;5.03;1.25;;;;;;;;;;5094440;28;20549;-68
2022/06/25 01:50:02;;;;;;;2.80;1.25;;;;;;;;;;5094701;28;20083;-68
2022/06/25 01:52:29;;;;;;;2.55;1.27;;;;;;;;;;5094169;28;20079;-68
2022/06/25 01:54:55;;;;;;;6.00;1.17;;;;;;;;;;5094170;28;20496;-68
2022/06/25 01:57:22;;;;;;;3.35;0.80;;;;;;;;;;5092866;28;20047;-68
2022/06/25 01:59:48;;;;;;;6.45;1.10;;;;;;;;;;5094010;28;20044;-68
2022/06/25 02:02:15;;;;;;;4.70;1.38;;;;;;;;;;5094461;28;20586;-68
2022/06/25 02:04:41;;;;;;;6.20;1.50;;;;;;;;;;5094199;28;20043;-68
2022/06/25 02:07:08;;;;;;;8.18;1.65;;;;;;;;;;5094114;28;20044;-68
2022/06/25 02:09:34;;;;;;;5.60;1.27;;;;;;;;;;5080001;28;20114;-68
2022/06/25 02:12:01;;;;;;;4.60;1.13;;;;;;;;;;5093926;28;20491;-68
2022/06/25 02:14:27;;;;;;;4.00;1.38;;;;;;;;;;5092869;28;20055;-68
2022/06/25 02:16:54;;;;;;;6.63;1.85;;;;;;;;;;5094157;28;20094;-68
2022/06/25 02:19:20;;;;;;;3.80;1.00;;;;;;;;;;5093640;28;20044;-68
2022/06/25 02:21:47;;;;;;;6.22;1.30;;;;;;;;;;5094020;28;20105;-68
2022/06/25 02:24:13;;;;;;;5.63;1.55;;;;;;;;;;5093844;28;20052;-68
2022/06/25 02:26:39;;;;;;;3.70;1.30;;;;;;;;;;5093793;28;20048;-68
2022/06/25 02:29:06;;;;;;;4.30;1.20;;;;;;;;;;5093905;28;20040;-68
2022/06/25 02:31:32;;;;;;;4.97;1.58;;;;;;;;;;5093823;28;20098;-68
2022/06/25 02:33:59;;;;;;;4.50;1.20;;;;;;;;;;5093835;28;20376;-68
2022/06/25 02:36:25;;;;;;;2.38;0.95;;;;;;;;;;5093493;28;20079;-68
2022/06/25 02:38:52;;;;;;;4.32;1.20;;;;;;;;;;5093699;28;20415;-68
2022/06/25 02:41:19;;;;;;;2.57;1.13;;;;;;;;;;5092552;28;20048;-68
2022/06/25 02:43:45;;;;;;;3.53;0.80;;;;;;;;;;5091642;28;20676;-68
2022/06/25 02:46:12;;;;;;;5.30;1.10;;;;;;;;;;5093345;28;20446;-68
2022/06/25 02:48:38;;;;;;;4.82;1.10;;;;;;;;;;5093503;28;20117;-68
2022/06/25 02:51:05;;;;;;;6.03;1.27;;;;;;;;;;5093258;28;20090;-68
2022/06/25 02:53:32;;;;;;;9.35;1.52;;;;;;;;;;5093100;28;20106;-68
2022/06/25 02:58:54;;;;;;;7.35;1.30;;;;;;;;;;5093294;28;20502;-68
2022/06/25 03:01:25;;;;;;;5.70;1.20;;;;;;;;;;5092966;28;20483;-67
2022/06/25 03:03:52;;;;;;;5.45;1.77;;;;;;;;;;5093236;28;20047;-67
2022/06/25 03:06:19;;;;;;;6.22;1.98;;;;;;;;;;5093098;28;20113;-67
2022/06/25 03:08:45;;;;;;;5.73;1.50;;;;;;;;;;5092782;28;20484;-67
2022/06/25 03:11:12;;;;;;;5.40;1.25;;;;;;;;;;5093163;28;20082;-67
2022/06/25 03:13:39;;;;;;;3.42;0.82;;;;;;;;;;5092804;28;20454;-68
2022/06/25 03:16:06;;;;;;;5.43;1.05;;;;;;;;;;5092747;28;20048;-67
2022/06/25 03:18:33;;;;;;;8.13;1.63;;;;;;;;;;5092724;28;20052;-67
2022/06/25 03:21:00;;;;;;;4.80;1.50;;;;;;;;;;5091229;28;20097;-67
2022/06/25 03:23:27;;;;;;;3.67;0.80;;;;;;;;;;5092569;28;20052;-67
2022/06/25 03:25:53;;;;;;;2.53;0.90;;;;;;;;;;5093089;28;20079;-67
2022/06/25 03:28:20;;;;;;;5.30;1.00;;;;;;;;;;5092775;28;20048;-67
2022/06/25 03:30:46;;;;;;;3.10;1.35;;;;;;;;;;5092622;28;20055;-67
2022/06/25 03:33:13;;;;;;;5.80;1.10;;;;;;;;;;5092419;28;20062;-67
2022/06/25 03:35:40;;;;;;;5.18;0.98;;;;;;;;;;5092370;28;20052;-67
2022/06/25 03:38:06;;;;;;;8.82;1.77;;;;;;;;;;5091038;28;20047;-67
2022/06/25 03:40:33;;;;;;;2.63;0.85;;;;;;;;;;5091986;28;20499;-67
2022/06/25 03:43:00;;;;;;;5.97;1.00;;;;;;;;;;5092129;28;20044;-67
2022/06/25 03:45:26;;;;;;;2.30;1.05;;;;;;;;;;5092115;28;20553;-67
2022/06/25 03:47:53;;;;;;;5.22;1.33;;;;;;;;;;5091971;28;20517;-67
2022/06/25 03:50:20;;;;;;;3.50;1.57;;;;;;;;;;5092034;28;20547;-67
2022/06/25 03:52:48;;;;;;;7.60;1.33;;;;;;;;;;5092407;28;20052;-67
2022/06/25 03:55:15;;;;;;;5.68;1.20;;;;;;;;;;5091784;28;20044;-67
2022/06/25 03:57:41;;;;;;;7.07;1.58;;;;;;;;;;5091890;28;20136;-67
2022/06/25 04:00:08;;;;;;;6.22;1.48;;;;;;;;;;5091998;28;20036;-67
2022/06/25 04:02:35;;;;;;;4.03;1.70;;;;;;;;;;5092225;28;20103;-68
2022/06/25 04:05:02;;;;;;;4.43;1.60;;;;;;;;;;5092093;28;20051;-67
2022/06/25 04:07:29;;;;;;;5.33;1.63;;;;;;;;;;5092057;28;20081;-68
2022/06/25 04:09:56;;;;;;;8.07;1.50;;;;;;;;;;5091787;28;20519;-68
2022/06/25 04:12:22;;;;;;;9.30;2.22;;;;;;;;;;5091795;28;20487;-68
2022/06/25 04:14:49;;;;;;;5.18;1.20;;;;;;;;;;5092112;28;20404;-68
2022/06/25 04:17:15;;;;;;;6.53;1.63;;;;;;;;;;5091966;28;20133;-68
2022/06/25 04:19:41;;;;;;;7.97;1.80;;;;;;;;;;5090594;28;20087;-68
2022/06/25 04:22:12;;;;;;;8.73;1.60;;;;;;;;;;5091838;28;20469;-68
2022/06/25 04:24:39;;;;;;;4.82;1.23;;;;;;;;;;5091633;28;20044;-68
2022/06/25 04:27:07;;;;;;;6.57;1.50;;;;;;;;;;5091667;28;20051;-68
2022/06/25 04:29:33;;;;;;;9.15;1.38;;;;;;;;;;5091640;28;20044;-68
2022/06/25 04:32:00;;;;;;;8.68;1.60;;;;;;;;;;5091466;28;20499;-68
2022/06/25 04:34:26;;;;;;;7.97;1.70;;;;;;;;;;5091842;28;20121;-68
2022/06/25 04:36:53;;;;;;;5.63;1.42;;;;;;;;;;5091707;28;20044;-68
2022/06/25 04:39:19;;;;;;;9.00;1.35;;;;;;;;;;5091234;28;20530;-68
2022/06/25 04:41:46;;;;;;;3.88;0.88;;;;;;;;;;5091499;28;20044;-68
2022/06/25 04:44:15;;;;;;;7.93;1.30;;;;;;;;;;5091619;28;20044;-68
2022/06/25 04:46:42;;;;;;;5.45;1.55;;;;;;;;;;5091769;28;20093;-68
2022/06/25 04:49:09;;;;;;;7.00;1.70;;;;;;;;;;5091654;28;20056;-68
2022/06/25 04:51:35;;;;;;;3.73;1.43;;;;;;;;;;5091743;28;20101;-68
2022/06/25 04:54:03;;;;;;;6.38;1.42;;;;;;;;;;5091754;28;20117;-68
2022/06/25 04:56:30;;;;;;;5.78;1.38;;;;;;;;;;5091304;28;20079;-68
2022/06/25 04:58:57;;;;;;;7.53;1.93;;;;;;;;;;5090431;28;20056;-68
2022/06/25 05:01:23;;;;;;;6.13;1.40;;;;;;;;;;5091544;28;20044;-68
2022/06/25 05:03:50;;;;;;;6.97;1.42;;;;;;;;;;5091619;28;20047;-68
2022/06/25 05:06:16;;;;;;;4.85;1.35;;;;;;;;;;5091238;28;20058;-68
2022/06/25 05:08:43;;;;;;;5.90;1.38;;;;;;;;;;5094175;28;20044;-68
2022/06/25 05:11:09;;;;;;;4.15;1.33;;;;;;;;;;5095197;28;20044;-68
2022/06/25 05:13:36;;;;;;;9.13;2.00;;;;;;;;;;5094994;28;20496;-68
2022/06/25 05:16:02;;;;;;;6.07;1.80;;;;;;;;;;5095295;28;20471;-68
2022/06/25 05:18:29;;;;;;;4.78;1.33;;;;;;;;;;5095193;28;20052;-68
2022/06/25 05:20:56;;;;;;;7.43;2.10;;;;;;;;;;5094854;28;20086;-68
2022/06/25 05:23:22;;;;;;;8.20;1.52;;;;;;;;;;5094951;28;20044;-68
2022/06/25 05:25:49;;;;;;;7.80;1.88;;;;;;;;;;5094743;28;20070;-68
2022/06/25 05:28:16;;;;;;;6.93;1.70;;;;;;;;;;5095123;28;20097;-68
2022/06/25 05:30:43;;;;;;;;;;;;;;;;;;5095377;28;20117;-68
2022/06/25 05:33:09;;;;;;;9.80;1.60;;;;;;;;;;5094890;28;19931;-68
2022/06/25 05:35:36;;;;;;;7.07;1.33;;;;;;;;;;5094580;28;20488;-68
2022/06/25 05:38:04;;;;;;;6.43;1.70;;;;;;;;;;5094616;28;20105;-68
2022/06/25 05:40:30;;;;;;;6.77;1.57;;;;;;;;;;5094374;28;20087;-68
2022/06/25 05:42:56;;;;;;;6.45;1.52;;;;;;;;;;5094764;28;20043;-68
2022/06/25 05:45:23;;;;;;;8.15;1.50;;;;;;;;;;5094477;28;20055;-67
2022/06/25 05:47:49;;;;;;;9.38;1.73;;;;;;;;;;5094691;28;20074;-68
2022/06/25 05:50:16;;;;;;;8.20;1.83;;;;;;;;;;5094640;28;20051;-68
2022/06/25 05:52:43;;;;;;;10.70;2.80;;;;;;;;;;5094683;28;20052;-69
2022/06/25 05:55:10;;;;;;;7.72;1.85;;;;;;;;;;5094123;28;20086;-68
2022/06/25 05:57:36;;;;;;;7.67;1.80;;;;;;;;;;5094219;28;20453;-67
2022/06/25 06:00:04;;;;;;;5.35;2.28;;;;;;;;;;5094370;28;20276;-68
2022/06/25 06:02:30;;;;;;;12.40;2.10;;;;;;;;;;5094205;28;20500;-68
2022/06/25 06:04:57;;;;;;;10.88;2.33;;;;;;;;;;5094427;28;20105;-68
2022/06/25 06:07:23;;;;;;;8.70;2.13;;;;;;;;;;5094049;28;20565;-69
2022/06/25 06:09:50;;;;;;;10.38;2.40;;;;;;;;;;5094333;28;20098;-68
2022/06/25 06:12:16;;;;;;;8.20;2.30;;;;;;;;;;5094131;28;20051;-68
2022/06/25 06:14:42;;;;;;;9.18;2.25;;;;;;;;;;5094320;28;20075;-68
2022/06/25 06:17:09;;;;;;;7.50;2.05;;;;;;;;;;5094173;28;20097;-68
2022/06/25 06:19:36;;;;;;;5.50;1.70;;;;;;;;;;5094126;28;20415;-68
2022/06/25 06:22:02;;;;;;;11.00;2.65;;;;;;;;;;5093947;28;20094;-68
2022/06/25 06:24:29;;;;;;;7.95;2.80;;;;;;;;;;5093796;28;20040;-68
2022/06/25 06:26:55;;;;;;;5.47;1.98;;;;;;;;;;5093630;28;20075;-68
2022/06/25 06:29:22;;;;;;;9.75;2.60;;;;;;;;;;5093737;28;20117;-68
2022/06/25 06:31:48;;;;;;;7.72;2.80;;;;;;;;;;5093673;28;20125;-68
2022/06/25 06:34:15;;;;;;;7.90;2.13;;;;;;;;;;5093471;28;20080;-68
2022/06/25 06:36:42;;;;;;;5.30;1.90;;;;;;;;;;5093814;28;20121;-68
2022/06/25 06:39:08;;;;;;;6.90;2.15;;;;;;;;;;5093486;28;20052;-68
2022/06/25 06:41:35;;;;;;;8.20;2.72;;;;;;;;;;5093629;28;20160;-68
2022/06/25 06:44:01;;;;;;;8.35;2.55;;;;;;;;;;5093260;28;20516;-68
2022/06/25 06:46:28;;;;;;;7.32;2.13;;;;;;;;;;5093309;28;20487;-68
2022/06/25 06:48:54;;;;;;;6.63;2.30;;;;;;;;;;5092067;28;20051;-68
2022/06/25 06:51:21;;;;;;;7.43;2.10;;;;;;;;;;5093313;28;20081;-68
2022/06/25 06:53:47;;;;;;;6.35;2.05;;;;;;;;;;5093428;28;20044;-68
2022/06/25 06:56:14;;;;;;;8.20;2.17;;;;;;;;;;5093005;28;20523;-68
2022/06/25 06:58:40;;;;;;;6.03;2.70;;;;;;;;;;5092678;28;20540;-68
2022/06/25 07:01:07;;;;;;;6.50;2.15;;;;;;;;;;5093032;28;20074;-68
2022/06/25 07:03:33;;;;;;;8.93;2.33;;;;;;;;;;5092917;28;20044;-69
2022/06/25 07:06:00;;;;;;;5.38;2.35;;;;;;;;;;5093181;28;20040;-69
2022/06/25 07:08:26;;;;;;;7.25;2.15;;;;;;;;;;5093106;28;20158;-69
2022/06/25 07:10:53;;;;;;;5.20;2.53;;;;;;;;;;5092657;28;20062;-69
2022/06/25 07:13:19;;;;;;;8.10;2.42;;;;;;;;;;5092509;28;20488;-70
2022/06/25 07:15:46;;;;;;;6.40;2.10;;;;;;;;;;5092929;28;20113;-69
2022/06/25 07:18:12;;;;;;;6.45;1.88;;;;;;;;;;5092125;28;20048;-70
2022/06/25 07:20:40;;;;;;;9.02;2.20;;;;;;;;;;5092530;28;20048;-70
2022/06/25 07:23:06;;;;;;;5.57;1.90;;;;;;;;;;5092602;28;20052;-70
2022/06/25 07:25:33;;;;;;;5.50;1.67;;;;;;;;;;5092454;28;20040;-69
2022/06/25 07:27:59;;;;;;;6.60;1.65;;;;;;;;;;5091665;28;20487;-71
2022/06/25 07:30:26;;;;;;;5.03;2.30;;;;;;;;;;5091363;28;20081;-67
2022/06/25 07:32:52;;;;;;;4.38;1.60;;;;;;;;;;5092046;28;20044;-67
2022/06/25 07:35:19;;;;;;;5.40;2.00;;;;;;;;;;5092188;28;20158;-67
2022/06/25 07:37:45;;;;;;;5.77;1.73;;;;;;;;;;5092113;28;20044;-69
2022/06/25 07:40:22;;;;;;;5.53;1.52;;;;;;;;;;5091737;28;20131;-71
2022/06/25 07:42:48;;;;;;;5.13;1.38;;;;;;;;;;5092161;28;20050;-69
2022/06/25 07:45:15;;;;;;;5.50;1.43;;;;;;;;;;5091788;28;20481;-70
2022/06/25 07:47:41;;;;;;;7.90;2.27;;;;;;;;;;5092210;28;20285;-70
2022/06/25 07:52:53;;;;;;;5.63;1.63;;;;;;;;;;5091435;28;20051;-72
2022/06/25 07:55:20;;;;;;;8.65;2.08;;;;;;;;;;5092109;28;20056;-70
2022/06/25 07:57:46;;;;;;;6.28;2.05;;;;;;;;;;5088035;28;20043;-71
2022/06/25 08:00:13;;;;;;;7.57;2.10;;;;;;;;;;5091232;28;20117;-70
2022/06/25 08:02:40;;;;;;;5.55;2.05;;;;;;;;;;5089912;28;20051;-75
2022/06/25 08:05:06;;;;;;;3.47;1.10;;;;;;;;;;5089249;28;20044;-72
2022/06/25 08:07:33;;;;;;;2.50;0.82;;;;;;;;;;5091689;28;20048;-72
2022/06/25 08:10:00;;;;;;;4.07;1.10;;;;;;;;;;5091003;28;20552;-70
2022/06/25 08:12:26;;;;;;;4.73;1.10;;;;;;;;;;5091374;28;20552;-69
2022/06/25 08:14:53;;;;;;;7.63;2.05;;;;;;;;;;5090932;28;20465;-70
2022/06/25 08:17:20;;;;;;;3.13;1.85;;;;;;;;;;5091763;28;20048;-73
2022/06/25 08:19:46;;;;;;;;;;;;;;;;;;5091750;28;20048;-72
2022/06/25 08:22:13;;;;;;;4.53;1.50;;;;;;;;;;5091440;28;19970;-73
2022/06/25 08:24:39;;;;;;;5.75;1.38;;;;;;;;;;5091281;28;20285;-71
2022/06/25 08:27:06;;;;;;;4.65;1.33;;;;;;;;;;5091659;28;20093;-70
2022/06/25 08:29:32;;;;;;;3.92;1.40;;;;;;;;;;5091007;28;20083;-70
2022/06/25 08:31:59;;;;;;;7.10;2.00;;;;;;;;;;5091723;28;20464;-71
2022/06/25 08:34:25;;;;;;;3.83;1.77;;;;;;;;;;5091616;28;20131;-73
2022/06/25 08:36:52;;;;;;;4.40;1.42;;;;;;;;;;5090279;28;20052;-69
2022/06/25 08:39:18;;;;;;;6.30;1.70;;;;;;;;;;5091477;28;20405;-70
2022/06/25 08:41:45;;;;;;;5.00;1.85;;;;;;;;;;5090904;28;20565;-70
2022/06/25 08:44:12;;;;;;;5.78;2.08;;;;;;;;;;5095624;28;20048;-70
2022/06/25 08:46:38;;;;;;;5.70;1.67;;;;;;;;;;5095775;28;20071;-70
2022/06/25 08:49:05;;;;;;;6.00;2.20;;;;;;;;;;5095946;28;20100;-70
2022/06/25 08:51:32;;;;;;;8.80;2.72;;;;;;;;;;5095767;28;20109;-70
2022/06/25 08:54:01;;;;;;;6.63;2.17;;;;;;;;;;5091023;28;20500;-70
2022/06/25 08:56:33;;;;;;;5.45;2.05;;;;;;;;;;5084197;28;20126;-70
2022/06/25 08:58:59;;;;;;;5.95;2.25;;;;;;;;;;5094843;28;20044;-70
2022/06/25 09:01:26;;;;;;;5.78;2.53;;;;;;;;;;5092269;28;20117;-70
2022/06/25 09:03:53;;;;;;;8.18;2.33;;;;;;;;;;5094594;28;20050;-71
2022/06/25 09:06:21;;;;;;;8.05;2.40;;;;;;;;;;5094665;28;20560;-71
2022/06/25 09:09:06;;;;;;;7.10;2.40;;;;;;;;;;5095070;28;20407;-71
2022/06/25 09:11:46;;;;;;;8.27;2.90;;;;;;;;;;5092551;28;20577;-71
2022/06/25 09:14:35;;;;;;;7.35;2.28;;;;;;;;;;5085113;28;20048;-71
2022/06/25 09:17:04;;;;;;;4.78;2.45;;;;;;;;;;5094769;28;20109;-71
2022/06/25 09:19:36;;;;;;;7.18;2.28;;;;;;;;;;5094480;28;20048;-71
2022/06/25 09:22:04;;;;;;;7.60;2.58;;;;;;;;;;5094657;28;20093;-70
2022/06/25 09:24:51;;;;;;;9.02;2.38;;;;;;;;;;5094350;28;20556;-72
2022/06/25 09:27:39;;;;;;;5.35;2.67;;;;;;;;;;5094109;28;20056;-71
2022/06/25 09:30:16;;;;;;;8.13;2.63;;;;;;;;;;5094573;28;20446;-72
2022/06/25 09:32:42;;;;;;;;;;;;;;;;;;5094504;28;20076;-72
2022/06/25 09:35:10;;;;;;;4.57;1.87;;;;;;;;;;5094045;28;20412;-71
2022/06/25 09:37:37;;;;;;;7.40;2.22;;;;;;;;;;5093980;28;20040;-71
2022/06/25 09:40:04;;;;;;;5.18;2.20;;;;;;;;;;5093330;28;20499;-70
2022/06/25 09:42:32;;;;;;;7.18;2.08;;;;;;;;;;5091848;28;20040;-69
2022/06/25 09:45:01;;;;;;;7.80;2.33;;;;;;;;;;5092447;28;20044;-69
2022/06/25 09:47:28;;;;;;;4.28;1.40;;;;;;;;;;5092347;28;20512;-69
2022/06/25 09:50:04;;;;;;;6.00;1.77;;;;;;;;;;5086350;28;20059;-70
2022/06/25 09:52:31;;;;;;;4.72;1.95;;;;;;;;;;5092338;28;20052;-70
2022/06/25 09:54:58;;;;;;;6.53;1.70;;;;;;;;;;5092034;28;20123;-69
2022/06/25 09:57:25;;;;;;;5.88;1.52;;;;;;;;;;5092143;28;20507;-69
2022/06/25 09:59:54;;;;;;;4.88;1.33;;;;;;;;;;5092504;28;20044;-69
2022/06/25 10:02:21;;;;;;;4.07;1.40;;;;;;;;;;5091068;28;20105;-69
2022/06/25 10:04:47;;;;;;;;;;;;;;;;;;5092233;28;20109;-68
2022/06/25 10:07:15;;;;;;;4.07;1.45;;;;;;;;;;5092005;28;19949;-69
2022/06/25 10:09:42;;;;;;;5.68;1.30;;;;;;;;;;5090546;28;20306;-67
2022/06/25 10:12:09;;;;;;;4.60;1.40;;;;;;;;;;5092333;28;20526;-68
2022/06/25 10:14:36;;;;;;;4.97;1.45;;;;;;;;;;5091522;28;20087;-68
2022/06/25 10:17:03;;;;;;;;;;;;;;;;;;5091933;28;20121;-68
2022/06/25 10:19:31;;;;;;;5.00;1.67;;;;;;;;;;5092661;28;19920;-69
2022/06/25 10:21:58;;;;;;;3.40;1.33;;;;;;;;;;5091747;28;20121;-70
2022/06/25 10:24:25;;;;;;;4.68;1.60;;;;;;;;;;5092011;28;20087;-68
2022/06/25 10:26:51;;;;;;;4.10;1.10;;;;;;;;;;5092896;28;20077;-69
2022/06/25 10:29:28;;;;;;;3.45;1.25;;;;;;;;;;5092862;28;20079;-68
2022/06/25 10:31:55;;;;;;;;;;;;;;;;;;5093333;28;20384;-68
2022/06/25 10:34:21;;;;;;;;;;;;;;;;;;5092942;28;19920;-68
2022/06/25 10:36:50;;;;;;;3.50;1.13;;;;;;;;;;5091578;28;19973;-67
2022/06/25 10:39:23;;;;;;;2.25;0.90;;;;;;;;;;5049037;28;1238533;-67
2022/06/25 10:44:53;;;;;;;1.98;0.95;;;;;;;;;;5093350;28;20044;-67
2022/06/25 10:47:36;;;;;;;4.45;1.40;;;;;;;;;;5093627;28;20510;-67
2022/06/25 10:50:20;;;;;;;2.42;0.85;;;;;;;;;;5093292;28;20044;-68
2022/06/25 10:53:03;;;;;;;3.60;1.10;;;;;;;;;;5093267;28;20141;-68
2022/06/25 10:55:30;;;;;;;4.13;1.17;;;;;;;;;;5093296;28;20040;-68
2022/06/25 10:58:09;;;;;;;3.67;1.23;;;;;;;;;;5093326;28;20101;-69
2022/06/25 11:00:45;;;;;;;2.38;0.90;;;;;;;;;;5093323;28;20079;-68
2022/06/25 11:03:11;;;;;;;4.32;1.23;;;;;;;;;;5093204;28;20452;-69
2022/06/25 11:05:47;;;;;;;2.92;1.00;;;;;;;;;;5092078;28;20095;-69
2022/06/25 11:08:13;;;;;;;2.75;0.90;;;;;;;;;;5093194;28;20094;-69
2022/06/25 11:10:40;;;;;;;3.25;1.10;;;;;;;;;;5093248;28;20044;-69
2022/06/25 11:13:07;;;;;;;3.55;1.20;;;;;;;;;;5092691;28;20056;-69
2022/06/25 11:15:41;;;;;;;3.30;1.17;;;;;;;;;;5092696;28;20051;-69
2022/06/25 11:18:08;;;;;;;3.58;0.93;;;;;;;;;;5093027;28;20061;-69
2022/06/25 11:20:35;;;;;;;3.00;1.10;;;;;;;;;;5092987;28;20044;-71
2022/06/25 11:23:02;;;;;;;3.38;1.20;;;;;;;;;;5091466;28;20564;-68
2022/06/25 11:28:49;;;;;;;3.83;0.95;;;;;;;;;;5071924;28;20412;-69
2022/06/25 11:31:15;;;;;;;5.43;1.35;;;;;;;;;;5070736;28;20076;-69
2022/06/25 11:33:43;;;;;;;3.60;1.25;;;;;;;;;;5071970;28;20048;-69
2022/06/25 11:36:10;;;;;;;3.20;1.10;;;;;;;;;;5071840;28;20097;-69
2022/06/25 11:38:38;;;;;;;3.22;1.10;;;;;;;;;;5071726;28;20080;-72
2022/06/25 11:41:05;;;;;;;3.35;0.73;;;;;;;;;;5071597;28;20084;-69
2022/06/25 11:43:34;;;;;;;1.85;0.90;;;;;;;;;;5071595;28;20048;-69
2022/06/25 11:46:01;;;;;;;2.95;0.77;;;;;;;;;;5071792;28;20056;-70
2022/06/25 11:48:28;;;;;;;1.48;0.75;;;;;;;;;;5071975;28;20044;-70
2022/06/25 11:50:59;;;;;;;2.47;0.88;;;;;;;;;;5071692;28;20049;-72
2022/06/25 11:53:30;;;;;;;4.18;1.00;;;;;;;;;;5070530;28;20381;-70
2022/06/25 11:55:57;;;;;;;3.25;0.95;;;;;;;;;;5071236;28;20076;-69
2022/06/25 11:58:26;;;;;;;2.95;1.10;;;;;;;;;;5074694;28;20403;-70
2022/06/25 12:01:03;;;;;;;2.38;1.10;;;;;;;;;;5091432;28;20484;-71
2022/06/25 12:03:30;;;;;;;4.05;1.20;;;;;;;;;;5091585;28;20081;-72
2022/06/25 12:05:57;;;;;;;5.72;1.40;;;;;;;;;;5091709;28;20044;-72
2022/06/25 12:08:24;;;;;;;3.03;0.90;;;;;;;;;;5091367;28;20082;-72
2022/06/25 12:10:52;;;;;;;3.80;1.10;;;;;;;;;;5090926;28;20479;-69
2022/06/25 12:13:19;;;;;;;2.25;1.15;;;;;;;;;;5091181;28;20172;-68
2022/06/25 12:15:46;;;;;;;2.95;0.88;;;;;;;;;;5090801;28;20074;-71
2022/06/25 12:18:12;;;;;;;;;;;;;;;;;;5090885;28;20059;-69
2022/06/25 12:20:55;;;;;;;2.95;0.80;;;;;;;;;;5089386;28;19973;-70
2022/06/25 12:23:21;;;;;;;5.28;1.15;;;;;;;;;;5091003;28;20089;-70
2022/06/25 12:25:48;;;;;;;2.33;1.02;;;;;;;;;;5091165;28;20098;-73
2022/06/25 12:28:15;;;;;;;;;;;;;;;;;;5091382;28;20101;-69
2022/06/25 12:30:41;;;;;;;11.43;2.65;;;;;;;;;;5090927;28;19969;-71
2022/06/25 12:33:13;;;;;;;2.92;1.05;;;;;;;;;;5090876;28;20051;-72
2022/06/25 12:35:43;;;;;;;2.10;0.95;;;;;;;;;;5091425;28;20051;-70
2022/06/25 12:38:10;;;;;;;3.20;1.10;;;;;;;;;;5091084;28;20084;-73
2022/06/25 12:40:38;;;;;;;3.25;1.20;;;;;;;;;;5089147;28;20558;-73
2022/06/25 12:43:06;;;;;;;2.17;1.20;;;;;;;;;;5090481;28;20549;-70
2022/06/25 12:45:33;;;;;;;3.05;1.00;;;;;;;;;;5090449;28;20048;-71
2022/06/25 12:48:00;;;;;;;2.88;1.08;;;;;;;;;;5090972;28;20085;-71
2022/06/25 12:50:26;;;;;;;;;;;;;;;;;;5091531;28;20044;-73
2022/06/25 12:52:53;;;;;;;2.22;1.10;;;;;;;;;;5091079;28;19924;-74
2022/06/25 12:55:24;;;;;;;4.93;1.00;;;;;;;;;;5091022;28;20095;-73
2022/06/25 12:57:53;;;;;;;2.80;1.10;;;;;;;;;;5090729;28;20109;-74
2022/06/25 13:00:20;;;;;;;;;;;;;;;;;;5091182;28;20083;-73
2022/06/25 13:02:47;;;;;;;4.05;1.13;;;;;;;;;;5091092;28;20330;-75
2022/06/25 13:05:14;;;;;;;3.15;1.00;;;;;;;;;;5091080;28;20044;-73
2022/06/25 13:07:41;;;;;;;;;;;;;;;;;;5091338;28;20051;-74
2022/06/25 13:10:07;;;;;;;2.15;1.00;;;;;;;;;;5090682;28;20397;-73
2022/06/25 13:12:34;;;;;;;2.85;1.00;;;;;;;;;;5090501;28;20056;-74
2022/06/25 13:15:02;;;;;;;4.63;1.17;;;;;;;;;;5090446;28;20106;-75
2022/06/25 13:17:28;;;;;;;2.92;1.05;;;;;;;;;;5090903;28;20040;-72
2022/06/25 13:19:55;;;;;;;;;;;;;;;;;;5088413;28;20056;-73
2022/06/25 13:22:21;;;;;;;4.80;1.50;;;;;;;;;;5090388;28;19967;-72
2022/06/25 13:24:48;;;;;;;2.40;0.98;;;;;;;;;;5090259;28;20097;-71
2022/06/25 13:27:14;;;;;;;4.25;0.90;;;;;;;;;;5090568;28;20140;-73
2022/06/25 13:29:42;;;;;;;2.47;1.08;;;;;;;;;;5093762;28;20092;-73
2022/06/25 13:32:08;;;;;;;3.90;1.20;;;;;;;;;;5094499;28;20097;-72
2022/06/25 13:34:35;;;;;;;3.30;1.02;;;;;;;;;;5092939;28;20109;-72
2022/06/25 13:37:02;;;;;;;4.28;1.00;;;;;;;;;;5094120;28;20500;-75
2022/06/25 13:39:28;;;;;;;2.08;1.00;;;;;;;;;;5093696;28;20055;-76
2022/06/25 13:41:55;;;;;;;3.72;1.45;;;;;;;;;;5091833;28;20068;-74
2022/06/25 13:44:22;;;;;;;2.83;0.95;;;;;;;;;;5093844;28;20403;-74
2022/06/25 13:46:48;;;;;;;3.30;1.13;;;;;;;;;;5093661;28;20048;-74
2022/06/25 13:49:15;;;;;;;3.75;1.58;;;;;;;;;;5093839;28;20075;-75
2022/06/25 13:51:42;;;;;;;2.30;1.00;;;;;;;;;;5094277;28;20557;-75
2022/06/25 13:54:08;;;;;;;;;;;;;;;;;;5095125;28;20051;-74
2022/06/25 13:56:36;;;;;;;5.75;1.20;;;;;;;;;;5094246;28;20408;-73
2022/06/25 13:59:03;;;;;;;3.88;1.05;;;;;;;;;;5094756;28;20048;-73
2022/06/25 14:01:29;;;;;;;1.55;0.98;;;;;;;;;;5094480;28;20044;-72
2022/06/25 14:03:56;;;;;;;2.25;1.27;;;;;;;;;;5093969;28;20048;-74
2022/06/25 14:06:22;;;;;;;2.20;0.88;;;;;;;;;;5094404;28;20054;-74
2022/06/25 14:08:49;;;;;;;2.10;0.85;;;;;;;;;;5094313;28;20044;-74
2022/06/25 14:11:15;;;;;;;2.25;0.80;;;;;;;;;;5094348;28;20093;-75
2022/06/25 14:13:42;;;;;;;2.60;0.60;;;;;;;;;;5093957;28;20485;-73
2022/06/25 14:16:08;;;;;;;1.65;0.90;;;;;;;;;;5093987;28;20048;-74
2022/06/25 14:18:35;;;;;;;;;;;;;;;;;;5094293;28;20495;-73
2022/06/25 14:21:03;;;;;;;3.00;0.80;;;;;;;;;;5094245;28;19969;-75
2022/06/25 14:23:33;;;;;;;3.17;0.90;;;;;;;;;;5093654;28;20048;-74
2022/06/25 14:26:00;;;;;;;2.90;0.80;;;;;;;;;;5093833;28;20089;-72
2022/06/25 14:28:26;;;;;;;;;;;;;;;;;;5094433;28;20056;-73
2022/06/25 14:30:52;;;;;;;2.67;0.70;;;;;;;;;;5093918;28;19969;-72
2022/06/25 14:33:19;;;;;;;4.75;1.20;;;;;;;;;;5093566;28;20538;-72
2022/06/25 14:44:00;;;;;;;3.17;0.88;;;;;;;;;;5093166;28;20113;-73
2022/06/25 14:46:27;;;;;;;1.73;0.80;;;;;;;;;;5092047;28;20079;-73
2022/06/25 14:48:54;;;;;;;4.13;1.17;;;;;;;;;;5093284;28;20127;-73
2022/06/25 14:51:21;;;;;;;2.33;1.10;;;;;;;;;;5081961;28;20048;-76
2022/06/25 14:53:48;;;;;;;;;;;;;;;;;;5092682;28;20048;-69
2022/06/25 14:56:14;;;;;;;2.17;0.82;;;;;;;;;;5092209;28;19919;-69
2022/06/25 14:58:41;;;;;;;3.50;1.27;;;;;;;;;;5092219;28;20064;-67
2022/06/25 15:01:08;;;;;;;2.08;0.60;;;;;;;;;;5090429;28;20560;-68
2022/06/25 15:03:35;;;;;;;2.53;0.85;;;;;;;;;;5092022;28;20044;-67
2022/06/25 15:06:02;;;;;;;;;;;;;;;;;;5092222;28;20147;-65
2022/06/25 15:08:28;;;;;;;1.48;0.80;;;;;;;;;;5092125;28;19956;-69
2022/06/25 15:10:55;;;;;;;2.08;0.60;;;;;;;;;;5091084;28;20545;-68
2022/06/25 15:13:21;;;;;;;4.78;1.23;;;;;;;;;;5091962;28;20080;-68